sensor_id;sensor_type;location;lat;lon;timestamp;temperature;humidity
39889;DHT22;25563;50.844;4.308;2022-07-22T00:02:25;18.60;99.90
39889;DHT22;25563;50.844;4.308;2022-07-22T00:04:50;18.60;99.90
39889;DHT22;25563;50.844;4.308;2022-07-22T00:07:18;18.60;99.90
39889;DHT22;25563;50.844;4.308;2022-07-22T00:09:43;18.60;99.90
39889;DHT22;25563;50.844;4.308;2022-07-22T00:12:09;18.60;99.90
39889;DHT22;25563;50.844;4.308;2022-07-22T00:14:35;18.60;99.90
39889;DHT22;25563;50.844;4.308;2022-07-22T00:17:00;18.50;99.90
39889;DHT22;25563;50.844;4.308;2022-07-22T00:19:29;18.50;99.90
39889;DHT22;25563;50.844;4.308;2022-07-22T00:21:56;18.40;99.90
39889;DHT22;25563;50.844;4.308;2022-07-22T00:24:23;18.40;99.90
39889;DHT22;25563;50.844;4.308;2022-07-22T00:26:55;18.40;99.90
39889;DHT22;25563;50.844;4.308;2022-07-22T00:29:22;18.40;99.90
39889;DHT22;25563;50.844;4.308;2022-07-22T00:31:48;18.40;99.90
39889;DHT22;25563;50.844;4.308;2022-07-22T00:34:14;18.40;99.90
39889;DHT22;25563;50.844;4.308;2022-07-22T00:36:42;18.40;99.90
39889;DHT22;25563;50.844;4.308;2022-07-22T00:39:08;18.40;99.90
39889;DHT22;25563;50.844;4.308;2022-07-22T00:41:35;18.20;99.90
39889;DHT22;25563;50.844;4.308;2022-07-22T00:44:04;18.30;99.90
39889;DHT22;25563;50.844;4.308;2022-07-22T00:46:31;18.30;99.90
39889;DHT22;25563;50.844;4.308;2022-07-22T00:48:57;18.30;99.90
39889;DHT22;25563;50.844;4.308;2022-07-22T00:51:26;18.30;99.90
39889;DHT22;25563;50.844;4.308;2022-07-22T00:53:54;18.30;99.90
39889;DHT22;25563;50.844;4.308;2022-07-22T00:56:21;18.30;99.90
39889;DHT22;25563;50.844;4.308;2022-07-22T00:58:48;18.20;99.90
39889;DHT22;25563;50.844;4.308;2022-07-22T01:01:15;18.20;99.90
39889;DHT22;25563;50.844;4.308;2022-07-22T01:03:42;18.10;99.90
39889;DHT22;25563;50.844;4.308;2022-07-22T01:06:08;18.10;99.90
39889;DHT22;25563;50.844;4.308;2022-07-22T01:08:33;18.00;99.90
39889;DHT22;25563;50.844;4.308;2022-07-22T01:11:14;18.00;99.90
39889;DHT22;25563;50.844;4.308;2022-07-22T01:13:41;18.00;99.90
39889;DHT22;25563;50.844;4.308;2022-07-22T01:16:09;18.00;99.90
39889;DHT22;25563;50.844;4.308;2022-07-22T01:18:37;17.90;99.90
39889;DHT22;25563;50.844;4.308;2022-07-22T01:21:05;17.90;99.90
39889;DHT22;25563;50.844;4.308;2022-07-22T01:23:31;17.90;99.90
39889;DHT22;25563;50.844;4.308;2022-07-22T01:25:57;17.90;99.90
39889;DHT22;25563;50.844;4.308;2022-07-22T01:28:24;17.90;99.90
39889;DHT22;25563;50.844;4.308;2022-07-22T01:30:50;17.90;99.90
39889;DHT22;25563;50.844;4.308;2022-07-22T01:33:17;17.90;99.90
39889;DHT22;25563;50.844;4.308;2022-07-22T01:35:43;17.90;99.90
39889;DHT22;25563;50.844;4.308;2022-07-22T01:38:09;17.90;99.90
39889;DHT22;25563;50.844;4.308;2022-07-22T01:40:35;17.90;99.90
39889;DHT22;25563;50.844;4.308;2022-07-22T01:43:01;17.90;99.90
39889;DHT22;25563;50.844;4.308;2022-07-22T01:45:27;17.90;99.90
39889;DHT22;25563;50.844;4.308;2022-07-22T01:47:53;17.80;99.90
39889;DHT22;25563;50.844;4.308;2022-07-22T01:50:19;17.80;99.90
39889;DHT22;25563;50.844;4.308;2022-07-22T01:52:44;17.80;99.90
39889;DHT22;25563;50.844;4.308;2022-07-22T01:55:10;17.80;99.90
39889;DHT22;25563;50.844;4.308;2022-07-22T01:57:38;17.80;99.90
39889;DHT22;25563;50.844;4.308;2022-07-22T02:00:08;17.80;99.90
39889;DHT22;25563;50.844;4.308;2022-07-22T02:02:35;17.70;99.90
39889;DHT22;25563;50.844;4.308;2022-07-22T02:05:03;17.90;99.90
39889;DHT22;25563;50.844;4.308;2022-07-22T02:07:29;17.80;99.90
39889;DHT22;25563;50.844;4.308;2022-07-22T02:09:59;17.80;99.90
39889;DHT22;25563;50.844;4.308;2022-07-22T02:12:25;17.80;99.90
39889;DHT22;25563;50.844;4.308;2022-07-22T02:14:50;17.90;99.90
39889;DHT22;25563;50.844;4.308;2022-07-22T02:17:16;17.80;99.90
39889;DHT22;25563;50.844;4.308;2022-07-22T02:19:42;17.80;99.90
39889;DHT22;25563;50.844;4.308;2022-07-22T02:22:08;17.80;99.90
39889;DHT22;25563;50.844;4.308;2022-07-22T02:24:37;17.80;99.90
39889;DHT22;25563;50.844;4.308;2022-07-22T02:27:05;17.80;99.90
39889;DHT22;25563;50.844;4.308;2022-07-22T02:29:33;17.80;99.90
39889;DHT22;25563;50.844;4.308;2022-07-22T02:31:59;17.80;99.90
39889;DHT22;25563;50.844;4.308;2022-07-22T02:34:25;17.80;99.90
39889;DHT22;25563;50.844;4.308;2022-07-22T02:36:52;17.80;99.90
39889;DHT22;25563;50.844;4.308;2022-07-22T02:39:18;17.90;99.90
39889;DHT22;25563;50.844;4.308;2022-07-22T02:41:44;17.90;99.90
39889;DHT22;25563;50.844;4.308;2022-07-22T02:44:10;17.80;99.90
39889;DHT22;25563;50.844;4.308;2022-07-22T02:46:35;17.90;99.90
39889;DHT22;25563;50.844;4.308;2022-07-22T02:49:02;17.80;99.90
39889;DHT22;25563;50.844;4.308;2022-07-22T02:51:30;17.80;99.90
39889;DHT22;25563;50.844;4.308;2022-07-22T02:53:57;17.80;99.90
39889;DHT22;25563;50.844;4.308;2022-07-22T02:56:23;17.80;99.90
39889;DHT22;25563;50.844;4.308;2022-07-22T02:58:50;17.80;99.90
39889;DHT22;25563;50.844;4.308;2022-07-22T03:01:19;17.80;99.90
39889;DHT22;25563;50.844;4.308;2022-07-22T03:03:46;17.80;99.90
39889;DHT22;25563;50.844;4.308;2022-07-22T03:06:12;17.70;99.90
39889;DHT22;25563;50.844;4.308;2022-07-22T03:08:38;17.70;99.90
39889;DHT22;25563;50.844;4.308;2022-07-22T03:11:04;17.70;99.90
39889;DHT22;25563;50.844;4.308;2022-07-22T03:13:30;17.70;99.90
39889;DHT22;25563;50.844;4.308;2022-07-22T03:15:57;17.70;99.90
39889;DHT22;25563;50.844;4.308;2022-07-22T03:18:23;17.70;99.90
39889;DHT22;25563;50.844;4.308;2022-07-22T03:20:51;17.60;99.90
39889;DHT22;25563;50.844;4.308;2022-07-22T03:23:16;17.60;99.90
39889;DHT22;25563;50.844;4.308;2022-07-22T03:25:42;17.60;99.90
39889;DHT22;25563;50.844;4.308;2022-07-22T03:28:09;17.60;99.90
39889;DHT22;25563;50.844;4.308;2022-07-22T03:30:35;17.60;99.90
39889;DHT22;25563;50.844;4.308;2022-07-22T03:33:01;17.60;99.90
39889;DHT22;25563;50.844;4.308;2022-07-22T03:35:28;17.50;99.90
39889;DHT22;25563;50.844;4.308;2022-07-22T03:37:53;17.60;99.90
39889;DHT22;25563;50.844;4.308;2022-07-22T03:40:19;17.50;99.90
39889;DHT22;25563;50.844;4.308;2022-07-22T03:42:45;17.50;99.90
39889;DHT22;25563;50.844;4.308;2022-07-22T03:45:11;17.50;99.90
39889;DHT22;25563;50.844;4.308;2022-07-22T03:47:37;17.50;99.90
39889;DHT22;25563;50.844;4.308;2022-07-22T03:50:03;17.50;99.90
39889;DHT22;25563;50.844;4.308;2022-07-22T03:52:29;17.50;99.90
39889;DHT22;25563;50.844;4.308;2022-07-22T03:54:56;17.50;99.90
39889;DHT22;25563;50.844;4.308;2022-07-22T03:57:25;17.50;99.90
39889;DHT22;25563;50.844;4.308;2022-07-22T03:59:51;17.80;99.90
39889;DHT22;25563;50.844;4.308;2022-07-22T04:02:16;17.50;99.90
39889;DHT22;25563;50.844;4.308;2022-07-22T04:04:45;17.50;99.90
39889;DHT22;25563;50.844;4.308;2022-07-22T04:07:12;17.50;99.90
39889;DHT22;25563;50.844;4.308;2022-07-22T04:09:37;17.50;99.90
39889;DHT22;25563;50.844;4.308;2022-07-22T04:12:04;17.50;99.90
39889;DHT22;25563;50.844;4.308;2022-07-22T04:14:30;17.50;99.90
39889;DHT22;25563;50.844;4.308;2022-07-22T04:16:56;17.50;99.90
39889;DHT22;25563;50.844;4.308;2022-07-22T04:19:22;17.50;99.90
39889;DHT22;25563;50.844;4.308;2022-07-22T04:21:48;17.50;99.90
39889;DHT22;25563;50.844;4.308;2022-07-22T04:24:14;17.50;99.90
39889;DHT22;25563;50.844;4.308;2022-07-22T04:26:41;17.60;99.90
39889;DHT22;25563;50.844;4.308;2022-07-22T04:29:06;17.60;99.90
39889;DHT22;25563;50.844;4.308;2022-07-22T04:31:32;17.70;99.90
39889;DHT22;25563;50.844;4.308;2022-07-22T04:34:02;17.80;99.90
39889;DHT22;25563;50.844;4.308;2022-07-22T04:36:29;17.80;99.90
39889;DHT22;25563;50.844;4.308;2022-07-22T04:38:54;17.80;99.90
39889;DHT22;25563;50.844;4.308;2022-07-22T04:41:20;17.80;99.90
39889;DHT22;25563;50.844;4.308;2022-07-22T04:43:50;17.80;99.90
39889;DHT22;25563;50.844;4.308;2022-07-22T04:46:15;17.80;99.90
39889;DHT22;25563;50.844;4.308;2022-07-22T04:48:41;17.80;99.90
39889;DHT22;25563;50.844;4.308;2022-07-22T04:51:07;17.80;99.90
39889;DHT22;25563;50.844;4.308;2022-07-22T04:53:34;17.90;99.90
39889;DHT22;25563;50.844;4.308;2022-07-22T04:56:00;18.00;99.90
39889;DHT22;25563;50.844;4.308;2022-07-22T04:58:26;18.10;99.90
39889;DHT22;25563;50.844;4.308;2022-07-22T05:00:52;18.20;99.90
39889;DHT22;25563;50.844;4.308;2022-07-22T05:03:18;18.40;99.90
39889;DHT22;25563;50.844;4.308;2022-07-22T05:05:44;18.50;99.90
39889;DHT22;25563;50.844;4.308;2022-07-22T05:08:11;18.60;99.90
39889;DHT22;25563;50.844;4.308;2022-07-22T05:10:37;18.60;99.90
39889;DHT22;25563;50.844;4.308;2022-07-22T05:13:03;18.70;99.90
39889;DHT22;25563;50.844;4.308;2022-07-22T05:15:44;18.80;99.90
39889;DHT22;25563;50.844;4.308;2022-07-22T05:18:11;18.90;99.90
39889;DHT22;25563;50.844;4.308;2022-07-22T05:20:40;19.00;99.90
39889;DHT22;25563;50.844;4.308;2022-07-22T05:23:06;19.10;99.90
39889;DHT22;25563;50.844;4.308;2022-07-22T05:25:31;19.10;99.90
39889;DHT22;25563;50.844;4.308;2022-07-22T05:27:58;19.10;99.90
39889;DHT22;25563;50.844;4.308;2022-07-22T05:30:23;19.10;99.90
39889;DHT22;25563;50.844;4.308;2022-07-22T05:32:49;19.10;99.90
39889;DHT22;25563;50.844;4.308;2022-07-22T05:35:16;19.10;99.90
39889;DHT22;25563;50.844;4.308;2022-07-22T05:37:42;19.10;99.90
39889;DHT22;25563;50.844;4.308;2022-07-22T05:40:08;19.10;99.90
39889;DHT22;25563;50.844;4.308;2022-07-22T05:42:34;19.20;99.90
39889;DHT22;25563;50.844;4.308;2022-07-22T05:45:02;19.20;99.90
39889;DHT22;25563;50.844;4.308;2022-07-22T05:47:29;19.20;99.90
39889;DHT22;25563;50.844;4.308;2022-07-22T05:49:55;19.30;99.90
39889;DHT22;25563;50.844;4.308;2022-07-22T05:52:20;19.30;99.90
39889;DHT22;25563;50.844;4.308;2022-07-22T05:54:46;19.40;99.90
39889;DHT22;25563;50.844;4.308;2022-07-22T05:57:13;19.50;99.90
39889;DHT22;25563;50.844;4.308;2022-07-22T05:59:39;19.50;99.90
39889;DHT22;25563;50.844;4.308;2022-07-22T06:02:06;19.40;99.90
39889;DHT22;25563;50.844;4.308;2022-07-22T06:04:34;19.50;99.90
39889;DHT22;25563;50.844;4.308;2022-07-22T06:07:01;19.40;99.90
39889;DHT22;25563;50.844;4.308;2022-07-22T06:09:26;19.40;99.90
39889;DHT22;25563;50.844;4.308;2022-07-22T06:11:53;19.30;99.90
39889;DHT22;25563;50.844;4.308;2022-07-22T06:14:19;19.30;99.90
39889;DHT22;25563;50.844;4.308;2022-07-22T06:16:45;19.30;99.90
39889;DHT22;25563;50.844;4.308;2022-07-22T06:19:11;19.40;99.90
39889;DHT22;25563;50.844;4.308;2022-07-22T06:21:37;19.40;99.90
39889;DHT22;25563;50.844;4.308;2022-07-22T06:24:10;19.40;99.90
39889;DHT22;25563;50.844;4.308;2022-07-22T06:26:35;19.50;99.90
39889;DHT22;25563;50.844;4.308;2022-07-22T06:29:02;19.60;99.90
39889;DHT22;25563;50.844;4.308;2022-07-22T06:31:33;19.60;99.90
39889;DHT22;25563;50.844;4.308;2022-07-22T06:33:58;19.70;99.90
39889;DHT22;25563;50.844;4.308;2022-07-22T06:36:25;19.90;99.70
39889;DHT22;25563;50.844;4.308;2022-07-22T06:38:51;20.10;99.20
39889;DHT22;25563;50.844;4.308;2022-07-22T06:41:17;20.20;98.80
39889;DHT22;25563;50.844;4.308;2022-07-22T06:43:45;20.40;98.40
39889;DHT22;25563;50.844;4.308;2022-07-22T06:46:12;20.50;98.20
39889;DHT22;25563;50.844;4.308;2022-07-22T06:48:39;20.70;97.60
39889;DHT22;25563;50.844;4.308;2022-07-22T06:51:05;20.90;97.00
39889;DHT22;25563;50.844;4.308;2022-07-22T06:53:32;21.10;96.60
39889;DHT22;25563;50.844;4.308;2022-07-22T06:55:58;21.20;95.80
39889;DHT22;25563;50.844;4.308;2022-07-22T06:58:25;21.30;95.90
39889;DHT22;25563;50.844;4.308;2022-07-22T07:00:51;21.40;95.50
39889;DHT22;25563;50.844;4.308;2022-07-22T07:03:18;21.50;95.40
39889;DHT22;25563;50.844;4.308;2022-07-22T07:05:44;21.60;94.90
39889;DHT22;25563;50.844;4.308;2022-07-22T07:08:11;21.60;94.70
39889;DHT22;25563;50.844;4.308;2022-07-22T07:10:38;21.70;94.40
39889;DHT22;25563;50.844;4.308;2022-07-22T07:13:05;21.80;94.20
39889;DHT22;25563;50.844;4.308;2022-07-22T07:15:31;21.90;94.20
39889;DHT22;25563;50.844;4.308;2022-07-22T07:17:58;21.90;94.30
39889;DHT22;25563;50.844;4.308;2022-07-22T07:20:25;22.00;93.70
39889;DHT22;25563;50.844;4.308;2022-07-22T07:22:52;22.00;93.30
39889;DHT22;25563;50.844;4.308;2022-07-22T07:25:18;22.00;92.90
39889;DHT22;25563;50.844;4.308;2022-07-22T07:27:45;22.00;92.40
39889;DHT22;25563;50.844;4.308;2022-07-22T07:30:11;22.00;91.80
39889;DHT22;25563;50.844;4.308;2022-07-22T07:32:38;22.00;92.10
39889;DHT22;25563;50.844;4.308;2022-07-22T07:35:05;22.00;91.60
39889;DHT22;25563;50.844;4.308;2022-07-22T07:37:32;22.00;91.40
39889;DHT22;25563;50.844;4.308;2022-07-22T07:40:06;22.00;91.50
39889;DHT22;25563;50.844;4.308;2022-07-22T07:42:32;22.00;91.30
39889;DHT22;25563;50.844;4.308;2022-07-22T07:44:58;22.10;90.90
39889;DHT22;25563;50.844;4.308;2022-07-22T07:47:26;22.10;90.70
39889;DHT22;25563;50.844;4.308;2022-07-22T07:49:55;22.20;90.70
39889;DHT22;25563;50.844;4.308;2022-07-22T07:52:43;22.30;90.70
39889;DHT22;25563;50.844;4.308;2022-07-22T07:55:13;22.40;90.50
39889;DHT22;25563;50.844;4.308;2022-07-22T07:57:40;22.40;90.30
39889;DHT22;25563;50.844;4.308;2022-07-22T08:00:08;22.60;90.30
39889;DHT22;25563;50.844;4.308;2022-07-22T08:02:34;22.60;90.10
39889;DHT22;25563;50.844;4.308;2022-07-22T08:05:01;22.60;89.80
39889;DHT22;25563;50.844;4.308;2022-07-22T08:07:28;22.60;89.50
39889;DHT22;25563;50.844;4.308;2022-07-22T08:09:54;22.70;89.20
39889;DHT22;25563;50.844;4.308;2022-07-22T08:12:21;22.80;87.30
39889;DHT22;25563;50.844;4.308;2022-07-22T08:14:48;22.80;87.00
39889;DHT22;25563;50.844;4.308;2022-07-22T08:17:14;22.80;87.50
39889;DHT22;25563;50.844;4.308;2022-07-22T08:19:41;22.70;88.00
39889;DHT22;25563;50.844;4.308;2022-07-22T08:22:06;22.60;88.10
39889;DHT22;25563;50.844;4.308;2022-07-22T08:24:33;22.60;87.60
39889;DHT22;25563;50.844;4.308;2022-07-22T08:27:00;22.80;88.00
39889;DHT22;25563;50.844;4.308;2022-07-22T08:29:27;22.90;87.90
39889;DHT22;25563;50.844;4.308;2022-07-22T08:31:54;23.10;86.40
39889;DHT22;25563;50.844;4.308;2022-07-22T08:34:20;23.30;85.80
39889;DHT22;25563;50.844;4.308;2022-07-22T08:36:47;23.40;85.20
39889;DHT22;25563;50.844;4.308;2022-07-22T08:39:13;23.50;84.60
39889;DHT22;25563;50.844;4.308;2022-07-22T08:41:40;23.60;84.00
39889;DHT22;25563;50.844;4.308;2022-07-22T08:44:08;23.50;83.20
39889;DHT22;25563;50.844;4.308;2022-07-22T08:46:34;23.60;84.10
39889;DHT22;25563;50.844;4.308;2022-07-22T08:49:00;23.80;83.10
39889;DHT22;25563;50.844;4.308;2022-07-22T08:51:27;24.00;83.20
39889;DHT22;25563;50.844;4.308;2022-07-22T08:53:54;24.20;81.50
39889;DHT22;25563;50.844;4.308;2022-07-22T08:56:20;24.30;81.20
39889;DHT22;25563;50.844;4.308;2022-07-22T08:58:46;24.40;81.10
39889;DHT22;25563;50.844;4.308;2022-07-22T09:01:15;24.40;81.20
39889;DHT22;25563;50.844;4.308;2022-07-22T09:03:54;24.70;80.40
39889;DHT22;25563;50.844;4.308;2022-07-22T09:06:23;24.90;79.90
39889;DHT22;25563;50.844;4.308;2022-07-22T09:08:54;25.20;78.40
39889;DHT22;25563;50.844;4.308;2022-07-22T09:11:22;25.30;77.10
39889;DHT22;25563;50.844;4.308;2022-07-22T09:13:50;25.40;76.50
39889;DHT22;25563;50.844;4.308;2022-07-22T09:16:20;25.40;77.60
39889;DHT22;25563;50.844;4.308;2022-07-22T09:19:02;25.50;75.90
39889;DHT22;25563;50.844;4.308;2022-07-22T09:21:30;25.70;76.70
39889;DHT22;25563;50.844;4.308;2022-07-22T09:23:55;25.80;75.00
39889;DHT22;25563;50.844;4.308;2022-07-22T09:26:36;25.90;74.20
39889;DHT22;25563;50.844;4.308;2022-07-22T09:29:04;26.00;75.00
39889;DHT22;25563;50.844;4.308;2022-07-22T09:31:33;25.90;74.60
39889;DHT22;25563;50.844;4.308;2022-07-22T09:33:59;25.60;75.10
39889;DHT22;25563;50.844;4.308;2022-07-22T09:36:26;25.30;75.00
39889;DHT22;25563;50.844;4.308;2022-07-22T09:38:53;25.20;75.20
39889;DHT22;25563;50.844;4.308;2022-07-22T09:41:19;25.10;75.30
39889;DHT22;25563;50.844;4.308;2022-07-22T09:43:46;25.00;75.70
39889;DHT22;25563;50.844;4.308;2022-07-22T09:46:12;24.90;75.20
39889;DHT22;25563;50.844;4.308;2022-07-22T09:48:39;25.00;76.40
39889;DHT22;25563;50.844;4.308;2022-07-22T09:51:09;25.30;75.20
39889;DHT22;25563;50.844;4.308;2022-07-22T09:53:37;25.40;74.40
39889;DHT22;25563;50.844;4.308;2022-07-22T09:56:07;25.60;74.10
39889;DHT22;25563;50.844;4.308;2022-07-22T09:58:33;25.80;73.90
39889;DHT22;25563;50.844;4.308;2022-07-22T10:01:03;25.80;72.60
39889;DHT22;25563;50.844;4.308;2022-07-22T10:03:35;25.50;73.00
39889;DHT22;25563;50.844;4.308;2022-07-22T10:06:05;25.30;74.00
39889;DHT22;25563;50.844;4.308;2022-07-22T10:08:32;25.30;73.40
39889;DHT22;25563;50.844;4.308;2022-07-22T10:11:04;25.30;72.70
39889;DHT22;25563;50.844;4.308;2022-07-22T10:13:34;25.30;73.60
39889;DHT22;25563;50.844;4.308;2022-07-22T10:16:03;25.40;72.80
39889;DHT22;25563;50.844;4.308;2022-07-22T10:18:31;25.40;72.80
39889;DHT22;25563;50.844;4.308;2022-07-22T10:21:03;25.30;72.70
39889;DHT22;25563;50.844;4.308;2022-07-22T10:23:32;25.20;72.50
39889;DHT22;25563;50.844;4.308;2022-07-22T10:26:00;25.20;72.60
39889;DHT22;25563;50.844;4.308;2022-07-22T10:28:46;25.10;73.40
39889;DHT22;25563;50.844;4.308;2022-07-22T10:33:50;25.20;73.80
39889;DHT22;25563;50.844;4.308;2022-07-22T10:36:38;25.20;73.50
39889;DHT22;25563;50.844;4.308;2022-07-22T10:39:10;25.20;72.90
39889;DHT22;25563;50.844;4.308;2022-07-22T10:41:41;25.40;72.80
39889;DHT22;25563;50.844;4.308;2022-07-22T10:44:09;25.70;72.70
39889;DHT22;25563;50.844;4.308;2022-07-22T10:46:53;25.80;71.70
39889;DHT22;25563;50.844;4.308;2022-07-22T10:49:24;25.70;72.40
39889;DHT22;25563;50.844;4.308;2022-07-22T10:55:15;25.80;72.70
39889;DHT22;25563;50.844;4.308;2022-07-22T10:57:41;26.10;71.60
39889;DHT22;25563;50.844;4.308;2022-07-22T11:00:08;26.10;70.90
39889;DHT22;25563;50.844;4.308;2022-07-22T11:02:37;26.00;71.00
39889;DHT22;25563;50.844;4.308;2022-07-22T11:05:05;26.10;71.80
39889;DHT22;25563;50.844;4.308;2022-07-22T11:07:31;26.20;70.90
39889;DHT22;25563;50.844;4.308;2022-07-22T11:10:19;26.30;71.30
39889;DHT22;25563;50.844;4.308;2022-07-22T11:12:51;26.30;70.90
39889;DHT22;25563;50.844;4.308;2022-07-22T11:15:16;26.10;71.10
39889;DHT22;25563;50.844;4.308;2022-07-22T11:17:44;26.20;71.50
39889;DHT22;25563;50.844;4.308;2022-07-22T11:20:12;26.50;69.80
39889;DHT22;25563;50.844;4.308;2022-07-22T11:22:38;26.70;70.10
39889;DHT22;25563;50.844;4.308;2022-07-22T11:25:07;26.90;69.30
39889;DHT22;25563;50.844;4.308;2022-07-22T11:27:33;26.90;69.20
39889;DHT22;25563;50.844;4.308;2022-07-22T11:29:59;26.90;69.70
39889;DHT22;25563;50.844;4.308;2022-07-22T11:32:26;27.10;69.40
39889;DHT22;25563;50.844;4.308;2022-07-22T11:34:57;27.30;68.20
39889;DHT22;25563;50.844;4.308;2022-07-22T11:37:25;27.30;68.80
39889;DHT22;25563;50.844;4.308;2022-07-22T11:39:58;27.40;68.00
39889;DHT22;25563;50.844;4.308;2022-07-22T11:42:27;27.30;67.90
39889;DHT22;25563;50.844;4.308;2022-07-22T11:44:54;27.40;67.90
39889;DHT22;25563;50.844;4.308;2022-07-22T11:47:20;27.40;68.30
39889;DHT22;25563;50.844;4.308;2022-07-22T11:49:47;27.40;68.30
39889;DHT22;25563;50.844;4.308;2022-07-22T11:52:17;27.60;67.60
39889;DHT22;25563;50.844;4.308;2022-07-22T11:54:43;27.70;66.80
39889;DHT22;25563;50.844;4.308;2022-07-22T11:57:11;27.90;66.20
39889;DHT22;25563;50.844;4.308;2022-07-22T11:59:40;28.00;65.70
39889;DHT22;25563;50.844;4.308;2022-07-22T12:02:07;28.20;65.90
39889;DHT22;25563;50.844;4.308;2022-07-22T12:04:35;28.30;65.80
39889;DHT22;25563;50.844;4.308;2022-07-22T12:07:02;28.40;65.60
39889;DHT22;25563;50.844;4.308;2022-07-22T12:09:34;28.50;65.60
39889;DHT22;25563;50.844;4.308;2022-07-22T12:12:00;28.60;65.60
39889;DHT22;25563;50.844;4.308;2022-07-22T12:14:34;28.60;65.30
39889;DHT22;25563;50.844;4.308;2022-07-22T12:17:17;28.70;65.10
39889;DHT22;25563;50.844;4.308;2022-07-22T12:19:43;29.10;64.00
39889;DHT22;25563;50.844;4.308;2022-07-22T12:22:22;29.70;62.70
39889;DHT22;25563;50.844;4.308;2022-07-22T12:25:01;30.20;62.00
39889;DHT22;25563;50.844;4.308;2022-07-22T12:27:29;29.90;62.30
39889;DHT22;25563;50.844;4.308;2022-07-22T12:29:57;29.60;62.70
39889;DHT22;25563;50.844;4.308;2022-07-22T12:32:27;29.30;63.20
39889;DHT22;25563;50.844;4.308;2022-07-22T12:42:45;28.90;63.50
39889;DHT22;25563;50.844;4.308;2022-07-22T12:45:18;28.60;64.30
39889;DHT22;25563;50.844;4.308;2022-07-22T12:48:08;28.60;63.80
39889;DHT22;25563;50.844;4.308;2022-07-22T12:50:57;28.80;64.00
39889;DHT22;25563;50.844;4.308;2022-07-22T12:53:26;29.00;63.20
39889;DHT22;25563;50.844;4.308;2022-07-22T12:55:57;29.20;63.60
39889;DHT22;25563;50.844;4.308;2022-07-22T12:58:28;29.20;63.30
39889;DHT22;25563;50.844;4.308;2022-07-22T13:00:57;29.30;63.50
39889;DHT22;25563;50.844;4.308;2022-07-22T13:03:24;29.40;63.20
39889;DHT22;25563;50.844;4.308;2022-07-22T13:05:55;29.50;63.50
39889;DHT22;25563;50.844;4.308;2022-07-22T13:08:23;29.80;62.40
39889;DHT22;25563;50.844;4.308;2022-07-22T13:10:51;29.80;62.30
39889;DHT22;25563;50.844;4.308;2022-07-22T13:13:17;30.00;61.80
39889;DHT22;25563;50.844;4.308;2022-07-22T13:15:45;30.20;61.50
39889;DHT22;25563;50.844;4.308;2022-07-22T13:18:24;30.30;61.60
39889;DHT22;25563;50.844;4.308;2022-07-22T13:20:49;30.00;61.50
39889;DHT22;25563;50.844;4.308;2022-07-22T13:23:16;29.80;61.50
39889;DHT22;25563;50.844;4.308;2022-07-22T13:25:45;29.60;61.50
39889;DHT22;25563;50.844;4.308;2022-07-22T13:28:11;29.20;62.30
39889;DHT22;25563;50.844;4.308;2022-07-22T13:30:36;28.90;62.90
39889;DHT22;25563;50.844;4.308;2022-07-22T13:33:02;28.50;63.40
39889;DHT22;25563;50.844;4.308;2022-07-22T13:35:46;28.20;64.10
39889;DHT22;25563;50.844;4.308;2022-07-22T13:38:38;27.80;64.50
39889;DHT22;25563;50.844;4.308;2022-07-22T13:41:05;27.60;65.40
39889;DHT22;25563;50.844;4.308;2022-07-22T13:43:42;27.50;65.80
39889;DHT22;25563;50.844;4.308;2022-07-22T13:46:11;27.80;65.80
39889;DHT22;25563;50.844;4.308;2022-07-22T13:48:37;28.10;65.10
39889;DHT22;25563;50.844;4.308;2022-07-22T13:51:06;28.30;64.60
39889;DHT22;25563;50.844;4.308;2022-07-22T13:53:35;28.70;64.30
39889;DHT22;25563;50.844;4.308;2022-07-22T13:56:01;29.20;63.90
39889;DHT22;25563;50.844;4.308;2022-07-22T13:58:27;29.70;63.00
39889;DHT22;25563;50.844;4.308;2022-07-22T14:00:54;29.90;62.30
39889;DHT22;25563;50.844;4.308;2022-07-22T14:03:20;30.30;62.00
39889;DHT22;25563;50.844;4.308;2022-07-22T14:05:46;30.50;61.00
39889;DHT22;25563;50.844;4.308;2022-07-22T14:08:12;29.90;61.50
39889;DHT22;25563;50.844;4.308;2022-07-22T14:10:38;29.60;62.10
39889;DHT22;25563;50.844;4.308;2022-07-22T14:13:04;29.30;62.60
39889;DHT22;25563;50.844;4.308;2022-07-22T14:15:32;29.00;62.80
39889;DHT22;25563;50.844;4.308;2022-07-22T14:17:58;28.80;63.50
39889;DHT22;25563;50.844;4.308;2022-07-22T14:20:24;28.60;64.00
39889;DHT22;25563;50.844;4.308;2022-07-22T14:22:51;28.30;64.30
39889;DHT22;25563;50.844;4.308;2022-07-22T14:25:18;27.90;64.70
39889;DHT22;25563;50.844;4.308;2022-07-22T14:27:51;27.60;65.40
39889;DHT22;25563;50.844;4.308;2022-07-22T14:30:18;27.40;65.80
39889;DHT22;25563;50.844;4.308;2022-07-22T14:32:44;27.30;66.00
39889;DHT22;25563;50.844;4.308;2022-07-22T14:35:11;27.00;66.70
39889;DHT22;25563;50.844;4.308;2022-07-22T14:37:40;26.90;67.20
39889;DHT22;25563;50.844;4.308;2022-07-22T14:40:08;27.00;67.20
39889;DHT22;25563;50.844;4.308;2022-07-22T14:42:33;26.90;67.70
39889;DHT22;25563;50.844;4.308;2022-07-22T14:44:59;26.80;67.80
39889;DHT22;25563;50.844;4.308;2022-07-22T14:47:26;26.70;68.30
39889;DHT22;25563;50.844;4.308;2022-07-22T14:49:52;26.70;68.40
39889;DHT22;25563;50.844;4.308;2022-07-22T14:52:19;26.80;68.20
39889;DHT22;25563;50.844;4.308;2022-07-22T14:54:46;26.70;67.80
39889;DHT22;25563;50.844;4.308;2022-07-22T14:57:13;26.60;68.10
39889;DHT22;25563;50.844;4.308;2022-07-22T14:59:41;26.50;68.20
39889;DHT22;25563;50.844;4.308;2022-07-22T15:02:08;26.50;68.60
39889;DHT22;25563;50.844;4.308;2022-07-22T15:04:35;26.40;68.50
39889;DHT22;25563;50.844;4.308;2022-07-22T15:07:01;26.40;68.30
39889;DHT22;25563;50.844;4.308;2022-07-22T15:09:30;26.40;68.50
39889;DHT22;25563;50.844;4.308;2022-07-22T15:11:56;26.40;68.70
39889;DHT22;25563;50.844;4.308;2022-07-22T15:14:26;26.40;68.70
39889;DHT22;25563;50.844;4.308;2022-07-22T15:16:52;26.40;68.80
39889;DHT22;25563;50.844;4.308;2022-07-22T15:19:18;26.50;69.00
39889;DHT22;25563;50.844;4.308;2022-07-22T15:21:44;26.50;68.70
39889;DHT22;25563;50.844;4.308;2022-07-22T15:24:13;26.40;69.10
39889;DHT22;25563;50.844;4.308;2022-07-22T15:26:39;26.40;69.20
39889;DHT22;25563;50.844;4.308;2022-07-22T15:29:06;26.40;68.80
39889;DHT22;25563;50.844;4.308;2022-07-22T15:31:32;26.30;68.90
39889;DHT22;25563;50.844;4.308;2022-07-22T15:34:02;26.30;68.90
39889;DHT22;25563;50.844;4.308;2022-07-22T15:36:29;26.40;69.20
39889;DHT22;25563;50.844;4.308;2022-07-22T15:38:57;26.40;69.10
39889;DHT22;25563;50.844;4.308;2022-07-22T15:41:22;26.40;68.80
39889;DHT22;25563;50.844;4.308;2022-07-22T15:43:58;26.30;69.00
39889;DHT22;25563;50.844;4.308;2022-07-22T15:46:24;26.20;69.20
39889;DHT22;25563;50.844;4.308;2022-07-22T15:48:50;26.00;69.60